createdAt,value
2019-03-25T00:01:28.041Z,8.76
2019-03-25T00:04:33.009Z,8.65
2019-03-25T00:07:37.669Z,8.65
2019-03-25T00:10:42.095Z,8.52
2019-03-25T00:13:46.664Z,8.37
2019-03-25T00:16:51.165Z,8.31
2019-03-25T00:19:55.752Z,8.19
2019-03-25T00:23:00.259Z,8.10
2019-03-25T00:26:04.740Z,8.05
2019-03-25T00:29:09.241Z,8.00
2019-03-25T00:32:14.082Z,8.08
2019-03-25T00:35:18.532Z,8.10
2019-03-25T00:38:22.996Z,8.13
2019-03-25T00:41:27.767Z,8.21
2019-03-25T00:44:32.254Z,8.16
2019-03-25T00:47:36.722Z,8.00
2019-03-25T00:50:41.490Z,7.87
2019-03-25T00:53:46.811Z,7.83
2019-03-25T00:56:51.527Z,7.73
2019-03-25T00:59:56.103Z,7.65
2019-03-25T01:03:00.677Z,7.59
2019-03-25T01:06:05.200Z,7.47
2019-03-25T01:09:09.712Z,7.30
2019-03-25T01:12:14.251Z,7.37
2019-03-25T01:15:18.751Z,7.45
2019-03-25T01:18:23.408Z,7.49
2019-03-25T01:21:27.905Z,7.49
2019-03-25T01:24:32.574Z,7.41
2019-03-25T01:27:37.402Z,7.32
2019-03-25T01:30:42.316Z,7.24
2019-03-25T01:33:46.866Z,7.17
2019-03-25T01:36:51.583Z,7.11
2019-03-25T01:39:55.995Z,7.12
2019-03-25T01:43:02.152Z,7.12
2019-03-25T01:46:06.766Z,7.08
2019-03-25T01:49:11.550Z,6.94
2019-03-25T01:52:16.417Z,6.78
2019-03-25T01:55:21.651Z,6.68
2019-03-25T01:58:25.974Z,6.56
2019-03-25T02:01:30.768Z,6.37
2019-03-25T02:04:35.488Z,6.33
2019-03-25T02:07:40.222Z,6.40
2019-03-25T02:10:44.707Z,6.42
2019-03-25T02:13:49.514Z,6.36
2019-03-25T02:16:54.079Z,6.32
2019-03-25T02:20:01.205Z,6.25
2019-03-25T02:23:05.950Z,6.06
2019-03-25T02:26:10.528Z,5.88
2019-03-25T02:29:16.127Z,5.74
2019-03-25T02:32:20.631Z,5.71
2019-03-25T02:35:25.147Z,5.71
2019-03-25T02:38:29.908Z,5.67
2019-03-25T02:41:34.814Z,5.80
2019-03-25T02:44:39.783Z,5.88
2019-03-25T02:47:44.360Z,5.89
2019-03-25T02:50:48.804Z,5.87
2019-03-25T02:53:54.036Z,5.93
2019-03-25T02:56:58.931Z,5.99
2019-03-25T03:00:03.648Z,6.01
2019-03-25T03:03:08.945Z,5.99
2019-03-25T03:06:13.461Z,5.89
2019-03-25T03:09:17.858Z,5.85
2019-03-25T03:12:22.298Z,5.85
2019-03-25T03:15:27.487Z,5.92
2019-03-25T03:18:31.991Z,6.01
2019-03-25T03:21:36.416Z,6.09
2019-03-25T03:24:41.678Z,6.11
2019-03-25T03:27:46.518Z,6.18
2019-03-25T03:30:50.880Z,6.02
2019-03-25T03:33:55.594Z,5.73
2019-03-25T03:37:00.324Z,5.70
2019-03-25T03:40:05.217Z,5.62
2019-03-25T03:43:09.784Z,5.52
2019-03-25T03:46:14.357Z,5.50
2019-03-25T03:49:19.023Z,5.56
2019-03-25T03:52:24.223Z,5.60
2019-03-25T03:55:29.830Z,5.66
2019-03-25T03:58:35.248Z,5.68
2019-03-25T04:01:40.053Z,5.70
2019-03-25T04:04:44.653Z,5.73
2019-03-25T04:07:49.413Z,5.63
2019-03-25T04:10:54.200Z,5.47
2019-03-25T04:13:58.706Z,5.43
2019-03-25T04:17:03.596Z,5.36
2019-03-25T04:20:08.573Z,5.31
2019-03-25T04:23:13.365Z,5.34
2019-03-25T04:26:28.589Z,5.19
2019-03-25T04:29:24.363Z,5.12
2019-03-25T04:32:29.092Z,4.99
2019-03-25T04:35:33.858Z,4.97
2019-03-25T04:38:38.217Z,4.86
2019-03-25T04:41:42.643Z,4.80
2019-03-25T04:44:47.424Z,4.72
2019-03-25T04:47:52.233Z,4.67
2019-03-25T04:50:57.020Z,4.71
2019-03-25T04:54:01.498Z,4.76
2019-03-25T04:57:06.097Z,4.80
2019-03-25T05:00:11.607Z,4.81
2019-03-25T05:03:16.546Z,4.77
2019-03-25T05:06:21.507Z,4.70
2019-03-25T05:09:27.364Z,4.69
2019-03-25T05:12:32.146Z,4.76
2019-03-25T05:15:36.636Z,4.83
2019-03-25T05:18:41.333Z,4.76
2019-03-25T05:21:45.757Z,4.83
2019-03-25T05:24:50.264Z,4.89
2019-03-25T05:27:56.498Z,4.93
2019-03-25T05:31:01.831Z,4.92
2019-03-25T05:34:06.357Z,4.95
2019-03-25T05:37:11.286Z,5.02
2019-03-25T05:40:15.869Z,4.99
2019-03-25T05:43:21.229Z,5.07
2019-03-25T05:46:25.891Z,5.09
2019-03-25T05:49:30.573Z,5.15
2019-03-25T05:52:34.998Z,5.11
2019-03-25T05:55:40.890Z,5.16
2019-03-25T05:58:45.563Z,5.12
2019-03-25T06:01:50.107Z,5.18
2019-03-25T06:04:54.622Z,5.27
2019-03-25T06:07:59.185Z,5.29
2019-03-25T06:11:04.003Z,5.25
2019-03-25T06:14:08.428Z,5.25
2019-03-25T06:17:12.946Z,5.36
2019-03-25T06:20:17.575Z,5.53
2019-03-25T06:23:21.997Z,5.66
2019-03-25T06:26:26.881Z,5.83
2019-03-25T06:29:32.146Z,6.00
2019-03-25T06:32:38.448Z,6.15
2019-03-25T06:35:42.944Z,6.31
2019-03-25T06:38:47.431Z,6.39
2019-03-25T06:41:52.293Z,6.70
2019-03-25T06:44:57.139Z,6.80
2019-03-25T06:48:01.632Z,6.96
2019-03-25T06:51:06.147Z,6.82
2019-03-25T06:54:10.678Z,6.79
2019-03-25T06:57:25.243Z,6.85
2019-03-25T07:00:21.945Z,6.94
2019-03-25T07:03:26.750Z,7.06
2019-03-25T07:06:31.297Z,7.13
2019-03-25T07:09:36.095Z,7.03
2019-03-25T07:12:40.693Z,7.11
2019-03-25T07:15:45.460Z,7.10
2019-03-25T07:18:51.323Z,6.98
2019-03-25T07:21:55.767Z,6.92
2019-03-25T07:25:00.987Z,7.11
2019-03-25T07:28:05.509Z,7.13
2019-03-25T07:31:10.236Z,7.28
2019-03-25T07:34:15.404Z,7.43
2019-03-25T07:37:20.227Z,7.49
2019-03-25T07:40:25.317Z,7.43
2019-03-25T07:43:29.731Z,7.61
2019-03-25T07:46:34.221Z,7.69
2019-03-25T07:49:39.067Z,7.59
2019-03-25T07:52:43.606Z,7.86
2019-03-25T07:55:48.029Z,7.87
2019-03-25T07:58:52.499Z,7.85
2019-03-25T08:01:57.510Z,7.86
2019-03-25T08:05:02.320Z,8.16
2019-03-25T08:08:07.476Z,8.33
2019-03-25T08:11:12.654Z,8.34
2019-03-25T08:14:17.514Z,8.43
2019-03-25T08:17:22.013Z,8.36
2019-03-25T08:20:26.519Z,8.13
2019-03-25T08:23:31.349Z,8.39
2019-03-25T08:26:35.781Z,8.56
2019-03-25T08:29:40.231Z,8.71
2019-03-25T08:32:45.381Z,8.74
2019-03-25T08:35:50.308Z,8.81
2019-03-25T08:38:55.182Z,9.09
2019-03-25T08:42:00.740Z,9.22
2019-03-25T08:45:05.635Z,9.44
2019-03-25T08:48:10.192Z,9.21
2019-03-25T08:51:14.643Z,9.31
2019-03-25T08:54:19.903Z,9.25
2019-03-25T08:57:24.729Z,9.43
2019-03-25T09:00:29.574Z,9.41
2019-03-25T09:03:34.106Z,9.45
2019-03-25T09:06:39.437Z,9.49
2019-03-25T09:09:44.284Z,9.72
2019-03-25T09:12:49.106Z,9.71
2019-03-25T09:15:54.159Z,9.59
2019-03-25T09:18:58.545Z,9.93
2019-03-25T09:22:03.055Z,10.01
2019-03-25T09:25:08.575Z,9.57
2019-03-25T09:28:23.705Z,9.09
2019-03-25T09:31:22.010Z,9.17
2019-03-25T09:34:27.129Z,9.10
2019-03-25T09:37:32.287Z,9.09
2019-03-25T09:40:36.712Z,9.23
2019-03-25T09:43:41.621Z,9.05
2019-03-25T09:46:46.118Z,9.10
2019-03-25T09:49:50.647Z,9.17
2019-03-25T09:52:55.064Z,9.25
2019-03-25T09:56:00.033Z,9.99
2019-03-25T09:59:05.076Z,10.10
2019-03-25T10:02:09.863Z,9.55
2019-03-25T10:05:14.739Z,10.02
2019-03-25T10:08:19.337Z,10.03
2019-03-25T10:11:23.658Z,9.94
2019-03-25T10:14:28.183Z,10.08
2019-03-25T10:17:32.568Z,9.67
2019-03-25T10:20:37.329Z,9.37
2019-03-25T10:23:41.801Z,9.42
2019-03-25T10:26:46.327Z,9.59
2019-03-25T10:29:50.793Z,9.68
2019-03-25T10:32:55.329Z,9.71
2019-03-25T10:36:00.199Z,9.79
2019-03-25T10:39:06.342Z,10.17
2019-03-25T10:42:10.780Z,10.52
2019-03-25T10:45:15.362Z,10.68
2019-03-25T10:48:19.870Z,10.26
2019-03-25T10:51:24.312Z,10.38
2019-03-25T10:54:28.771Z,10.63
2019-03-25T10:57:33.272Z,10.87
2019-03-25T11:00:37.919Z,11.09
2019-03-25T11:03:42.690Z,11.50
2019-03-25T11:06:47.145Z,11.22
2019-03-25T11:09:51.741Z,11.62
2019-03-25T11:12:56.243Z,11.58
2019-03-25T11:16:00.693Z,11.62
2019-03-25T11:19:05.256Z,11.21
2019-03-25T11:22:09.972Z,11.01
2019-03-25T11:25:15.921Z,11.23
2019-03-25T11:28:20.432Z,11.49
2019-03-25T11:31:24.939Z,11.70
2019-03-25T11:34:29.418Z,11.72
2019-03-25T11:37:33.853Z,11.66
2019-03-25T11:40:38.229Z,11.36
2019-03-25T11:43:42.896Z,11.21
2019-03-25T11:46:47.393Z,10.98
2019-03-25T11:49:52.176Z,11.25
2019-03-25T11:52:56.626Z,11.03
2019-03-25T11:56:01.097Z,11.22
2019-03-25T11:59:05.637Z,10.98
2019-03-25T12:02:17.303Z,11.48
2019-03-25T12:05:16.414Z,11.16
2019-03-25T12:08:20.870Z,11.15
2019-03-25T12:11:25.517Z,11.26
2019-03-25T12:14:29.919Z,11.32
2019-03-25T12:17:34.447Z,11.32
2019-03-25T12:20:39.313Z,11.32
2019-03-25T12:23:43.806Z,11.78
2019-03-25T12:26:48.477Z,11.64
2019-03-25T12:29:52.961Z,11.49
2019-03-25T12:33:03.975Z,11.25
2019-03-25T12:36:04.876Z,11.16
2019-03-25T12:39:09.566Z,11.30
2019-03-25T12:42:14.041Z,11.27
2019-03-25T12:45:18.592Z,10.96
2019-03-25T12:48:23.296Z,11.00
2019-03-25T12:51:28.575Z,11.03
2019-03-25T12:54:33.070Z,10.97
2019-03-25T12:57:37.521Z,10.99
2019-03-25T13:00:43.551Z,10.98
2019-03-25T13:03:48.550Z,11.03
2019-03-25T13:06:53.148Z,10.88
2019-03-25T13:09:57.614Z,9.53
2019-03-25T13:13:02.112Z,8.74
2019-03-25T13:16:06.611Z,8.44
2019-03-25T13:19:11.436Z,8.29
2019-03-25T13:22:16.364Z,8.34
2019-03-25T13:25:20.887Z,8.61
2019-03-25T13:28:26.047Z,8.76
2019-03-25T13:31:30.764Z,9.54
2019-03-25T13:34:35.186Z,9.97
2019-03-25T13:37:40.028Z,9.88
2019-03-25T13:40:44.418Z,10.02
2019-03-25T13:43:49.021Z,9.75
2019-03-25T13:46:53.455Z,9.99
2019-03-25T13:49:57.876Z,10.13
2019-03-25T13:53:02.366Z,10.07
2019-03-25T13:56:06.932Z,10.46
2019-03-25T13:59:11.471Z,10.22
2019-03-25T14:02:16.210Z,9.47
2019-03-25T14:05:20.867Z,9.14
2019-03-25T14:08:25.811Z,9.05
2019-03-25T14:11:30.275Z,9.00
2019-03-25T14:14:35.035Z,8.89
2019-03-25T14:17:40.107Z,8.85
2019-03-25T14:20:44.672Z,9.03
2019-03-25T14:23:49.478Z,9.49
2019-03-25T14:26:53.978Z,10.13
2019-03-25T14:30:00.733Z,10.77
2019-03-25T14:33:04.736Z,10.81
2019-03-25T14:36:09.176Z,10.89
2019-03-25T14:39:13.515Z,11.31
2019-03-25T14:42:18.005Z,11.41
2019-03-25T14:45:26.621Z,11.26
2019-03-25T14:48:29.640Z,11.01
2019-03-25T14:51:34.583Z,10.81
2019-03-25T14:54:40.116Z,10.60
2019-03-25T14:57:45.308Z,10.80
2019-03-25T15:00:49.883Z,10.71
2019-03-25T15:03:55.105Z,10.73
2019-03-25T15:07:00.107Z,10.75
2019-03-25T15:10:05.153Z,10.84
2019-03-25T15:13:09.630Z,10.70
2019-03-25T15:16:14.564Z,10.84
2019-03-25T15:19:19.245Z,10.87
2019-03-25T15:22:24.210Z,11.05
2019-03-25T15:25:28.720Z,11.37
2019-03-25T15:28:33.633Z,11.22
2019-03-25T15:31:39.010Z,11.69
2019-03-25T15:34:43.896Z,11.42
2019-03-25T15:37:48.487Z,11.46
2019-03-25T15:40:53.308Z,11.46
2019-03-25T15:43:57.744Z,11.41
2019-03-25T15:47:02.585Z,10.89
2019-03-25T15:50:08.986Z,10.44
2019-03-25T15:53:13.464Z,10.53
2019-03-25T15:56:18.394Z,10.66
2019-03-25T15:59:23.380Z,10.47
2019-03-25T16:02:27.849Z,10.49
2019-03-25T16:05:32.536Z,10.60
2019-03-25T16:08:37.241Z,10.34
2019-03-25T16:11:42.213Z,10.38
2019-03-25T16:14:46.923Z,10.54
2019-03-25T16:17:51.555Z,10.12
2019-03-25T16:20:56.092Z,9.94
2019-03-25T16:24:00.970Z,9.98
2019-03-25T16:27:05.370Z,9.62
2019-03-25T16:30:10.098Z,9.59
2019-03-25T16:33:14.572Z,9.67
2019-03-25T16:36:19.493Z,9.73
2019-03-25T16:39:24.375Z,9.78
2019-03-25T16:42:28.770Z,9.77
2019-03-25T16:45:33.190Z,9.66
2019-03-25T16:48:37.839Z,9.54
2019-03-25T16:51:42.364Z,9.44
2019-03-25T16:54:47.147Z,9.37
2019-03-25T16:57:51.692Z,9.36
2019-03-25T17:00:57.270Z,9.27
2019-03-25T17:04:01.797Z,9.28
2019-03-25T17:07:06.082Z,9.30
2019-03-25T17:10:10.909Z,9.29
2019-03-25T17:13:15.334Z,9.13
2019-03-25T17:16:19.790Z,9.05
2019-03-25T17:19:24.422Z,9.04
2019-03-25T17:22:28.868Z,9.11
2019-03-25T17:25:33.236Z,9.15
2019-03-25T17:28:38.083Z,9.10
2019-03-25T17:31:44.487Z,8.93
2019-03-25T17:34:49.216Z,9.05
2019-03-25T17:37:53.725Z,9.09
2019-03-25T17:40:58.256Z,9.02
2019-03-25T17:44:03.772Z,9.04
2019-03-25T17:47:08.323Z,8.90
2019-03-25T17:50:13.139Z,8.84
2019-03-25T17:53:18.275Z,8.84
2019-03-25T17:56:23.071Z,8.69
2019-03-25T17:59:27.864Z,8.60
2019-03-25T18:02:32.304Z,8.60
2019-03-25T18:05:36.597Z,8.63
2019-03-25T18:08:41.073Z,8.54
2019-03-25T18:11:45.514Z,8.39
2019-03-25T18:14:50.157Z,8.20
2019-03-25T18:17:54.455Z,8.01
2019-03-25T18:20:59.229Z,7.69
2019-03-25T18:24:04.125Z,7.57
2019-03-25T18:27:09.103Z,7.55
2019-03-25T18:30:13.712Z,7.31
2019-03-25T18:33:18.455Z,7.27
2019-03-25T18:36:22.879Z,7.19
2019-03-25T18:39:27.757Z,7.15
2019-03-25T18:42:32.191Z,6.87
2019-03-25T18:45:36.686Z,6.75
2019-03-25T18:48:41.058Z,6.69
2019-03-25T18:51:45.687Z,6.58
2019-03-25T18:54:50.519Z,6.64
2019-03-25T18:57:54.974Z,6.69
2019-03-25T19:00:59.472Z,6.85
2019-03-25T19:04:04.332Z,6.57
2019-03-25T19:07:08.858Z,6.67
2019-03-25T19:10:16.623Z,6.59
2019-03-25T19:13:20.931Z,6.57
2019-03-25T19:16:25.409Z,6.67
2019-03-25T19:19:30.096Z,6.39
2019-03-25T19:22:34.851Z,6.57
2019-03-25T19:25:39.461Z,6.38
2019-03-25T19:28:43.776Z,6.29
2019-03-25T19:31:48.192Z,6.03
2019-03-25T19:34:52.601Z,5.92
2019-03-25T19:37:57.215Z,5.76
2019-03-25T19:41:01.943Z,5.75
2019-03-25T19:44:06.531Z,5.79
2019-03-25T19:47:10.871Z,5.64
2019-03-25T19:50:15.974Z,5.59
2019-03-25T19:53:20.978Z,5.55
2019-03-25T19:56:25.634Z,5.52
2019-03-25T19:59:30.452Z,5.59
2019-03-25T20:02:35.012Z,5.60
2019-03-25T20:05:39.755Z,5.63
2019-03-25T20:08:44.217Z,5.63
2019-03-25T20:11:48.869Z,5.67
2019-03-25T20:14:53.346Z,5.78
2019-03-25T20:17:57.997Z,5.95
2019-03-25T20:21:02.442Z,6.12
2019-03-25T20:24:07.255Z,6.33
2019-03-25T20:27:11.725Z,6.47
2019-03-25T20:30:17.403Z,6.47
2019-03-25T20:33:21.925Z,6.55
2019-03-25T20:36:26.550Z,6.58
2019-03-25T20:39:31.262Z,6.57
2019-03-25T20:42:35.879Z,6.52
2019-03-25T20:45:40.243Z,6.39
2019-03-25T20:48:45.291Z,6.29
2019-03-25T20:51:49.743Z,6.09
2019-03-25T20:54:54.048Z,6.07
2019-03-25T20:57:58.505Z,6.02
2019-03-25T21:01:04.782Z,6.16
2019-03-25T21:04:10.128Z,6.01
2019-03-25T21:07:14.501Z,6.12
2019-03-25T21:10:19.006Z,6.10
2019-03-25T21:13:23.383Z,6.05
2019-03-25T21:16:27.776Z,5.91
2019-03-25T21:19:32.214Z,5.67
2019-03-25T21:22:36.559Z,5.68
2019-03-25T21:25:40.902Z,5.74
2019-03-25T21:28:45.387Z,5.86
2019-03-25T21:31:49.829Z,5.97
2019-03-25T21:34:54.361Z,6.20
2019-03-25T21:37:59.069Z,6.19
2019-03-25T21:41:03.818Z,6.22
2019-03-25T21:44:08.155Z,6.12
2019-03-25T21:47:12.536Z,6.03
2019-03-25T21:50:16.976Z,5.92
2019-03-25T21:53:21.505Z,5.86
2019-03-25T21:56:25.968Z,5.79
2019-03-25T21:59:30.516Z,5.80
2019-03-25T22:02:34.821Z,5.75
2019-03-25T22:05:39.458Z,5.58
2019-03-25T22:08:43.786Z,5.54
2019-03-25T22:11:48.142Z,5.66
2019-03-25T22:14:52.741Z,5.76
2019-03-25T22:17:57.305Z,5.90
2019-03-25T22:21:01.715Z,6.03
2019-03-25T22:24:06.016Z,5.98
2019-03-25T22:27:10.930Z,6.09
2019-03-25T22:30:15.747Z,6.06
2019-03-25T22:33:26.154Z,6.03
2019-03-25T22:36:26.924Z,6.01
2019-03-25T22:39:31.319Z,5.97
2019-03-25T22:42:35.794Z,6.00
2019-03-25T22:45:40.289Z,6.01
2019-03-25T22:48:45.235Z,5.94
2019-03-25T22:51:49.815Z,5.88
2019-03-25T22:54:54.217Z,5.76
2019-03-25T22:57:58.973Z,5.60
2019-03-25T23:01:05.036Z,5.41
2019-03-25T23:04:09.409Z,5.28
2019-03-25T23:07:14.572Z,5.13
2019-03-25T23:10:19.093Z,5.06
2019-03-25T23:13:24.849Z,4.97
2019-03-25T23:16:29.299Z,4.87
2019-03-25T23:19:34.178Z,4.83
2019-03-25T23:22:38.663Z,4.77
2019-03-25T23:25:43.807Z,4.79
2019-03-25T23:28:48.560Z,4.78
2019-03-25T23:31:53.279Z,4.74
2019-03-25T23:34:57.722Z,4.67
2019-03-25T23:38:02.646Z,4.74
2019-03-25T23:41:07.170Z,4.83
2019-03-25T23:44:11.715Z,4.91
2019-03-25T23:47:16.194Z,4.79
2019-03-25T23:50:20.594Z,4.64
2019-03-25T23:53:25.516Z,4.61
2019-03-25T23:56:30.036Z,4.61
2019-03-25T23:59:34.842Z,4.84
